sensor_id;sensor_type;location;lat;lon;timestamp;temperature;humidity
30973;DHT22;25423;45.624;13.790;2022-08-21T00:01:52;22.70;99.90
30973;DHT22;25423;45.624;13.790;2022-08-21T00:04:17;22.70;99.90
30973;DHT22;25423;45.624;13.790;2022-08-21T00:06:43;22.70;99.90
30973;DHT22;25423;45.624;13.790;2022-08-21T00:09:09;22.80;99.90
30973;DHT22;25423;45.624;13.790;2022-08-21T00:11:35;23.00;99.90
30973;DHT22;25423;45.624;13.790;2022-08-21T00:14:02;23.00;99.90
30973;DHT22;25423;45.624;13.790;2022-08-21T00:16:27;23.10;99.90
30973;DHT22;25423;45.624;13.790;2022-08-21T00:18:53;23.20;99.90
30973;DHT22;25423;45.624;13.790;2022-08-21T00:21:18;23.40;99.90
30973;DHT22;25423;45.624;13.790;2022-08-21T00:23:46;23.30;99.90
30973;DHT22;25423;45.624;13.790;2022-08-21T00:26:12;23.10;99.90
30973;DHT22;25423;45.624;13.790;2022-08-21T00:28:37;23.10;99.90
30973;DHT22;25423;45.624;13.790;2022-08-21T00:31:03;23.10;99.90
30973;DHT22;25423;45.624;13.790;2022-08-21T00:33:29;23.00;99.90
30973;DHT22;25423;45.624;13.790;2022-08-21T00:35:55;22.90;99.90
30973;DHT22;25423;45.624;13.790;2022-08-21T00:38:20;22.80;99.90
30973;DHT22;25423;45.624;13.790;2022-08-21T00:43:13;22.80;99.90
30973;DHT22;25423;45.624;13.790;2022-08-21T00:45:39;22.80;99.90
30973;DHT22;25423;45.624;13.790;2022-08-21T00:48:05;22.80;99.90
30973;DHT22;25423;45.624;13.790;2022-08-21T00:50:32;22.70;99.90
30973;DHT22;25423;45.624;13.790;2022-08-21T00:52:58;22.70;99.90
30973;DHT22;25423;45.624;13.790;2022-08-21T00:55:24;22.80;99.90
30973;DHT22;25423;45.624;13.790;2022-08-21T00:57:51;22.80;99.90
30973;DHT22;25423;45.624;13.790;2022-08-21T01:00:20;22.80;99.90
30973;DHT22;25423;45.624;13.790;2022-08-21T01:02:46;22.90;99.90
30973;DHT22;25423;45.624;13.790;2022-08-21T01:05:12;22.90;99.90
30973;DHT22;25423;45.624;13.790;2022-08-21T01:07:38;22.90;99.90
30973;DHT22;25423;45.624;13.790;2022-08-21T01:10:05;22.90;99.90
30973;DHT22;25423;45.624;13.790;2022-08-21T01:12:31;23.00;99.90
30973;DHT22;25423;45.624;13.790;2022-08-21T01:14:57;23.00;99.90
30973;DHT22;25423;45.624;13.790;2022-08-21T01:17:24;23.10;99.90
30973;DHT22;25423;45.624;13.790;2022-08-21T01:19:50;23.20;99.90
30973;DHT22;25423;45.624;13.790;2022-08-21T01:22:15;23.20;99.90
30973;DHT22;25423;45.624;13.790;2022-08-21T01:24:41;23.10;99.90
30973;DHT22;25423;45.624;13.790;2022-08-21T01:27:06;23.10;99.90
30973;DHT22;25423;45.624;13.790;2022-08-21T01:31:59;23.20;99.90
30973;DHT22;25423;45.624;13.790;2022-08-21T01:34:25;23.20;99.90
30973;DHT22;25423;45.624;13.790;2022-08-21T01:36:50;23.10;99.90
30973;DHT22;25423;45.624;13.790;2022-08-21T01:39:16;23.10;99.90
30973;DHT22;25423;45.624;13.790;2022-08-21T01:41:42;23.00;99.90
30973;DHT22;25423;45.624;13.790;2022-08-21T01:44:08;23.00;99.90
30973;DHT22;25423;45.624;13.790;2022-08-21T01:46:34;23.10;99.90
30973;DHT22;25423;45.624;13.790;2022-08-21T01:48:59;23.20;99.90
30973;DHT22;25423;45.624;13.790;2022-08-21T01:51:25;23.20;99.90
30973;DHT22;25423;45.624;13.790;2022-08-21T01:53:51;23.20;99.90
30973;DHT22;25423;45.624;13.790;2022-08-21T01:56:17;23.20;99.90
30973;DHT22;25423;45.624;13.790;2022-08-21T01:58:43;23.20;99.90
30973;DHT22;25423;45.624;13.790;2022-08-21T02:01:09;23.30;99.90
30973;DHT22;25423;45.624;13.790;2022-08-21T02:03:35;23.40;99.90
30973;DHT22;25423;45.624;13.790;2022-08-21T02:06:05;23.40;99.90
30973;DHT22;25423;45.624;13.790;2022-08-21T02:08:30;23.50;99.90
30973;DHT22;25423;45.624;13.790;2022-08-21T02:10:56;23.50;99.90
30973;DHT22;25423;45.624;13.790;2022-08-21T02:13:22;23.50;99.90
30973;DHT22;25423;45.624;13.790;2022-08-21T02:15:47;23.50;99.90
30973;DHT22;25423;45.624;13.790;2022-08-21T02:18:13;23.50;99.90
30973;DHT22;25423;45.624;13.790;2022-08-21T02:20:40;23.50;99.90
30973;DHT22;25423;45.624;13.790;2022-08-21T02:23:07;23.40;99.90
30973;DHT22;25423;45.624;13.790;2022-08-21T02:25:34;23.20;99.90
30973;DHT22;25423;45.624;13.790;2022-08-21T02:28:01;23.10;99.90
30973;DHT22;25423;45.624;13.790;2022-08-21T02:30:28;23.10;99.90
30973;DHT22;25423;45.624;13.790;2022-08-21T02:32:55;23.00;99.90
30973;DHT22;25423;45.624;13.790;2022-08-21T02:35:20;23.00;99.90
30973;DHT22;25423;45.624;13.790;2022-08-21T02:37:47;23.00;99.90
30973;DHT22;25423;45.624;13.790;2022-08-21T02:40:13;22.90;99.90
30973;DHT22;25423;45.624;13.790;2022-08-21T02:42:39;22.80;99.90
30973;DHT22;25423;45.624;13.790;2022-08-21T02:45:05;22.60;99.90
30973;DHT22;25423;45.624;13.790;2022-08-21T02:47:31;22.60;99.90
30973;DHT22;25423;45.624;13.790;2022-08-21T02:49:57;22.50;99.90
30973;DHT22;25423;45.624;13.790;2022-08-21T02:52:22;22.50;99.90
30973;DHT22;25423;45.624;13.790;2022-08-21T02:54:49;22.40;99.90
30973;DHT22;25423;45.624;13.790;2022-08-21T02:57:15;22.50;99.90
30973;DHT22;25423;45.624;13.790;2022-08-21T02:59:41;22.50;99.90
30973;DHT22;25423;45.624;13.790;2022-08-21T03:02:06;22.50;99.90
30973;DHT22;25423;45.624;13.790;2022-08-21T03:04:32;22.50;99.90
30973;DHT22;25423;45.624;13.790;2022-08-21T03:06:57;22.50;99.90
30973;DHT22;25423;45.624;13.790;2022-08-21T03:09:23;22.40;99.90
30973;DHT22;25423;45.624;13.790;2022-08-21T03:11:49;22.40;99.90
30973;DHT22;25423;45.624;13.790;2022-08-21T03:14:17;22.40;99.90
30973;DHT22;25423;45.624;13.790;2022-08-21T03:16:42;22.30;99.90
30973;DHT22;25423;45.624;13.790;2022-08-21T03:19:08;22.20;99.90
30973;DHT22;25423;45.624;13.790;2022-08-21T03:21:34;22.10;99.90
30973;DHT22;25423;45.624;13.790;2022-08-21T03:23:59;22.10;99.90
30973;DHT22;25423;45.624;13.790;2022-08-21T03:26:25;22.00;99.90
30973;DHT22;25423;45.624;13.790;2022-08-21T03:28:50;22.00;99.90
30973;DHT22;25423;45.624;13.790;2022-08-21T03:31:16;21.90;99.90
30973;DHT22;25423;45.624;13.790;2022-08-21T03:33:43;22.10;99.90
30973;DHT22;25423;45.624;13.790;2022-08-21T03:36:09;22.00;99.90
30973;DHT22;25423;45.624;13.790;2022-08-21T03:38:35;22.00;99.90
30973;DHT22;25423;45.624;13.790;2022-08-21T03:41:02;22.00;99.90
30973;DHT22;25423;45.624;13.790;2022-08-21T03:43:28;21.90;99.90
30973;DHT22;25423;45.624;13.790;2022-08-21T03:45:54;21.90;99.90
30973;DHT22;25423;45.624;13.790;2022-08-21T03:48:19;21.80;99.90
30973;DHT22;25423;45.624;13.790;2022-08-21T03:50:45;21.70;99.90
30973;DHT22;25423;45.624;13.790;2022-08-21T03:53:12;21.70;99.90
30973;DHT22;25423;45.624;13.790;2022-08-21T03:55:39;21.80;99.90
30973;DHT22;25423;45.624;13.790;2022-08-21T03:58:04;21.90;99.90
30973;DHT22;25423;45.624;13.790;2022-08-21T04:00:30;21.90;99.90
30973;DHT22;25423;45.624;13.790;2022-08-21T04:02:56;22.00;99.90
30973;DHT22;25423;45.624;13.790;2022-08-21T04:05:21;21.90;99.90
30973;DHT22;25423;45.624;13.790;2022-08-21T04:08:00;21.90;99.90
30973;DHT22;25423;45.624;13.790;2022-08-21T04:10:27;21.80;99.90
30973;DHT22;25423;45.624;13.790;2022-08-21T04:12:53;21.70;99.90
30973;DHT22;25423;45.624;13.790;2022-08-21T04:15:20;21.70;99.90
30973;DHT22;25423;45.624;13.790;2022-08-21T04:17:45;21.70;99.90
30973;DHT22;25423;45.624;13.790;2022-08-21T04:20:11;21.60;99.90
30973;DHT22;25423;45.624;13.790;2022-08-21T04:22:38;21.60;99.90
30973;DHT22;25423;45.624;13.790;2022-08-21T04:25:04;21.50;99.90
30973;DHT22;25423;45.624;13.790;2022-08-21T04:27:30;21.50;99.90
30973;DHT22;25423;45.624;13.790;2022-08-21T04:29:55;21.60;99.90
30973;DHT22;25423;45.624;13.790;2022-08-21T04:32:22;21.60;99.90
30973;DHT22;25423;45.624;13.790;2022-08-21T04:34:48;21.60;99.90
30973;DHT22;25423;45.624;13.790;2022-08-21T04:37:13;21.60;99.90
30973;DHT22;25423;45.624;13.790;2022-08-21T04:39:41;21.70;99.90
30973;DHT22;25423;45.624;13.790;2022-08-21T04:42:06;21.80;99.90
30973;DHT22;25423;45.624;13.790;2022-08-21T04:44:32;21.70;99.90
30973;DHT22;25423;45.624;13.790;2022-08-21T04:46:58;21.70;99.90
30973;DHT22;25423;45.624;13.790;2022-08-21T04:49:23;21.80;99.90
30973;DHT22;25423;45.624;13.790;2022-08-21T04:51:49;21.80;99.90
30973;DHT22;25423;45.624;13.790;2022-08-21T04:54:19;21.80;99.90
30973;DHT22;25423;45.624;13.790;2022-08-21T04:56:47;21.90;99.90
30973;DHT22;25423;45.624;13.790;2022-08-21T04:59:24;21.90;99.90
30973;DHT22;25423;45.624;13.790;2022-08-21T05:01:51;21.90;99.90
30973;DHT22;25423;45.624;13.790;2022-08-21T05:04:21;21.90;99.90
30973;DHT22;25423;45.624;13.790;2022-08-21T05:06:47;22.00;99.90
30973;DHT22;25423;45.624;13.790;2022-08-21T05:09:14;22.10;99.90
30973;DHT22;25423;45.624;13.790;2022-08-21T05:11:40;22.10;99.90
30973;DHT22;25423;45.624;13.790;2022-08-21T05:14:07;22.10;99.90
30973;DHT22;25423;45.624;13.790;2022-08-21T05:16:32;22.10;99.90
30973;DHT22;25423;45.624;13.790;2022-08-21T05:18:58;22.10;99.90
30973;DHT22;25423;45.624;13.790;2022-08-21T05:21:24;22.10;99.90
30973;DHT22;25423;45.624;13.790;2022-08-21T05:23:49;22.20;99.90
30973;DHT22;25423;45.624;13.790;2022-08-21T05:26:15;22.10;99.90
30973;DHT22;25423;45.624;13.790;2022-08-21T05:28:40;22.20;99.90
30973;DHT22;25423;45.624;13.790;2022-08-21T05:31:06;22.20;99.90
30973;DHT22;25423;45.624;13.790;2022-08-21T05:33:32;22.30;99.90
30973;DHT22;25423;45.624;13.790;2022-08-21T05:35:57;22.30;99.90
30973;DHT22;25423;45.624;13.790;2022-08-21T05:38:23;22.30;99.90
30973;DHT22;25423;45.624;13.790;2022-08-21T05:40:49;22.40;99.90
30973;DHT22;25423;45.624;13.790;2022-08-21T05:43:16;22.40;99.90
30973;DHT22;25423;45.624;13.790;2022-08-21T05:45:42;22.40;99.90
30973;DHT22;25423;45.624;13.790;2022-08-21T05:48:12;22.40;99.90
30973;DHT22;25423;45.624;13.790;2022-08-21T05:50:38;22.50;99.90
30973;DHT22;25423;45.624;13.790;2022-08-21T05:53:04;22.60;99.90
30973;DHT22;25423;45.624;13.790;2022-08-21T05:55:29;22.50;99.90
30973;DHT22;25423;45.624;13.790;2022-08-21T05:57:55;22.60;99.90
30973;DHT22;25423;45.624;13.790;2022-08-21T06:00:21;22.70;99.90
30973;DHT22;25423;45.624;13.790;2022-08-21T06:02:48;22.70;99.90
30973;DHT22;25423;45.624;13.790;2022-08-21T06:05:15;22.70;99.90
30973;DHT22;25423;45.624;13.790;2022-08-21T06:07:40;22.80;99.90
30973;DHT22;25423;45.624;13.790;2022-08-21T06:10:06;22.90;99.90
30973;DHT22;25423;45.624;13.790;2022-08-21T06:12:32;22.90;99.90
30973;DHT22;25423;45.624;13.790;2022-08-21T06:14:58;23.00;99.90
30973;DHT22;25423;45.624;13.790;2022-08-21T06:17:23;23.20;99.90
30973;DHT22;25423;45.624;13.790;2022-08-21T06:19:52;23.30;99.90
30973;DHT22;25423;45.624;13.790;2022-08-21T06:22:18;23.40;99.90
30973;DHT22;25423;45.624;13.790;2022-08-21T06:24:44;23.50;99.90
30973;DHT22;25423;45.624;13.790;2022-08-21T06:27:09;23.70;99.90
30973;DHT22;25423;45.624;13.790;2022-08-21T06:29:35;23.80;99.90
30973;DHT22;25423;45.624;13.790;2022-08-21T06:32:01;23.90;99.90
30973;DHT22;25423;45.624;13.790;2022-08-21T06:34:27;24.00;99.90
30973;DHT22;25423;45.624;13.790;2022-08-21T06:36:53;24.20;99.90
30973;DHT22;25423;45.624;13.790;2022-08-21T06:39:18;24.40;99.90
30973;DHT22;25423;45.624;13.790;2022-08-21T06:41:44;24.60;99.90
30973;DHT22;25423;45.624;13.790;2022-08-21T06:44:10;24.50;99.90
30973;DHT22;25423;45.624;13.790;2022-08-21T06:46:35;24.70;99.90
30973;DHT22;25423;45.624;13.790;2022-08-21T06:49:01;24.90;99.90
30973;DHT22;25423;45.624;13.790;2022-08-21T06:51:26;25.10;99.90
30973;DHT22;25423;45.624;13.790;2022-08-21T06:53:52;25.30;99.90
30973;DHT22;25423;45.624;13.790;2022-08-21T06:56:18;25.40;99.90
30973;DHT22;25423;45.624;13.790;2022-08-21T06:58:44;25.30;99.90
30973;DHT22;25423;45.624;13.790;2022-08-21T07:01:10;25.20;99.90
30973;DHT22;25423;45.624;13.790;2022-08-21T07:03:37;25.20;99.90
30973;DHT22;25423;45.624;13.790;2022-08-21T07:06:06;25.30;99.90
30973;DHT22;25423;45.624;13.790;2022-08-21T07:08:33;25.30;99.90
30973;DHT22;25423;45.624;13.790;2022-08-21T07:11:00;25.60;99.90
30973;DHT22;25423;45.624;13.790;2022-08-21T07:13:26;25.90;99.90
30973;DHT22;25423;45.624;13.790;2022-08-21T07:15:52;26.10;99.90
30973;DHT22;25423;45.624;13.790;2022-08-21T07:18:18;26.30;99.90
30973;DHT22;25423;45.624;13.790;2022-08-21T07:20:43;26.40;99.90
30973;DHT22;25423;45.624;13.790;2022-08-21T07:23:15;26.50;99.90
30973;DHT22;25423;45.624;13.790;2022-08-21T07:25:42;26.60;99.90
30973;DHT22;25423;45.624;13.790;2022-08-21T07:28:08;26.70;99.90
30973;DHT22;25423;45.624;13.790;2022-08-21T07:30:34;26.90;99.90
30973;DHT22;25423;45.624;13.790;2022-08-21T07:32:59;26.90;99.90
30973;DHT22;25423;45.624;13.790;2022-08-21T07:35:25;26.90;99.90
30973;DHT22;25423;45.624;13.790;2022-08-21T07:37:50;27.00;99.90
30973;DHT22;25423;45.624;13.790;2022-08-21T07:40:16;27.20;99.90
30973;DHT22;25423;45.624;13.790;2022-08-21T07:42:43;27.40;99.90
30973;DHT22;25423;45.624;13.790;2022-08-21T07:45:09;27.40;99.90
30973;DHT22;25423;45.624;13.790;2022-08-21T07:47:35;27.40;99.90
30973;DHT22;25423;45.624;13.790;2022-08-21T07:50:00;27.30;99.90
30973;DHT22;25423;45.624;13.790;2022-08-21T07:52:26;27.10;99.90
30973;DHT22;25423;45.624;13.790;2022-08-21T07:54:52;26.80;99.90
30973;DHT22;25423;45.624;13.790;2022-08-21T07:57:17;26.70;99.90
30973;DHT22;25423;45.624;13.790;2022-08-21T07:59:43;26.50;99.90
30973;DHT22;25423;45.624;13.790;2022-08-21T08:02:08;26.10;99.90
30973;DHT22;25423;45.624;13.790;2022-08-21T08:04:34;25.90;99.90
30973;DHT22;25423;45.624;13.790;2022-08-21T08:07:00;25.80;99.90
30973;DHT22;25423;45.624;13.790;2022-08-21T08:09:25;25.90;99.90
30973;DHT22;25423;45.624;13.790;2022-08-21T08:11:51;25.90;99.90
30973;DHT22;25423;45.624;13.790;2022-08-21T08:14:16;26.10;99.90
30973;DHT22;25423;45.624;13.790;2022-08-21T08:16:42;26.20;99.90
30973;DHT22;25423;45.624;13.790;2022-08-21T08:19:08;26.50;99.90
30973;DHT22;25423;45.624;13.790;2022-08-21T08:21:33;26.50;99.90
30973;DHT22;25423;45.624;13.790;2022-08-21T08:23:59;26.50;99.90
30973;DHT22;25423;45.624;13.790;2022-08-21T08:26:25;26.60;99.90
30973;DHT22;25423;45.624;13.790;2022-08-21T08:28:51;26.70;99.90
30973;DHT22;25423;45.624;13.790;2022-08-21T08:31:17;26.80;99.90
30973;DHT22;25423;45.624;13.790;2022-08-21T08:33:42;27.10;99.90
30973;DHT22;25423;45.624;13.790;2022-08-21T08:36:17;27.40;99.90
30973;DHT22;25423;45.624;13.790;2022-08-21T08:38:44;27.50;99.90
30973;DHT22;25423;45.624;13.790;2022-08-21T08:41:11;27.70;99.90
30973;DHT22;25423;45.624;13.790;2022-08-21T08:43:38;27.80;99.90
30973;DHT22;25423;45.624;13.790;2022-08-21T08:46:06;28.10;99.90
30973;DHT22;25423;45.624;13.790;2022-08-21T08:48:39;28.40;99.90
30973;DHT22;25423;45.624;13.790;2022-08-21T08:51:07;28.30;99.90
30973;DHT22;25423;45.624;13.790;2022-08-21T08:56:35;28.10;99.90
30973;DHT22;25423;45.624;13.790;2022-08-21T08:59:02;28.10;99.90
30973;DHT22;25423;45.624;13.790;2022-08-21T09:01:32;28.30;99.90
30973;DHT22;25423;45.624;13.790;2022-08-21T09:03:58;28.20;99.90
30973;DHT22;25423;45.624;13.790;2022-08-21T09:11:28;27.70;99.90
30973;DHT22;25423;45.624;13.790;2022-08-21T09:14:13;27.50;99.90
30973;DHT22;25423;45.624;13.790;2022-08-21T09:27:08;26.70;99.90
30973;DHT22;25423;45.624;13.790;2022-08-21T09:29:36;26.80;99.90
30973;DHT22;25423;45.624;13.790;2022-08-21T09:32:03;26.80;99.90
30973;DHT22;25423;45.624;13.790;2022-08-21T09:34:30;26.90;99.90
30973;DHT22;25423;45.624;13.790;2022-08-21T09:36:57;26.90;99.90
30973;DHT22;25423;45.624;13.790;2022-08-21T09:39:24;27.10;99.90
30973;DHT22;25423;45.624;13.790;2022-08-21T09:42:03;27.30;99.90
30973;DHT22;25423;45.624;13.790;2022-08-21T09:44:31;27.40;99.90
30973;DHT22;25423;45.624;13.790;2022-08-21T09:46:57;27.40;99.90
30973;DHT22;25423;45.624;13.790;2022-08-21T09:49:27;27.20;99.90
30973;DHT22;25423;45.624;13.790;2022-08-21T09:51:52;27.00;99.90
30973;DHT22;25423;45.624;13.790;2022-08-21T09:54:20;26.80;99.90
30973;DHT22;25423;45.624;13.790;2022-08-21T09:56:51;26.70;99.90
30973;DHT22;25423;45.624;13.790;2022-08-21T09:59:36;26.50;99.90
30973;DHT22;25423;45.624;13.790;2022-08-21T10:02:14;26.50;99.90
30973;DHT22;25423;45.624;13.790;2022-08-21T10:04:49;26.50;99.90
30973;DHT22;25423;45.624;13.790;2022-08-21T10:07:14;26.60;99.90
30973;DHT22;25423;45.624;13.790;2022-08-21T10:09:40;26.60;99.90
30973;DHT22;25423;45.624;13.790;2022-08-21T10:30:32;28.10;99.90
30973;DHT22;25423;45.624;13.790;2022-08-21T10:35:33;28.00;99.90
30973;DHT22;25423;45.624;13.790;2022-08-21T10:38:07;27.90;99.90
30973;DHT22;25423;45.624;13.790;2022-08-21T10:46:13;27.70;99.90
30973;DHT22;25423;45.624;13.790;2022-08-21T10:51:15;27.30;99.90
30973;DHT22;25423;45.624;13.790;2022-08-21T10:53:55;27.40;99.90
30973;DHT22;25423;45.624;13.790;2022-08-21T10:56:26;27.50;99.90
30973;DHT22;25423;45.624;13.790;2022-08-21T11:01:26;27.30;99.90
30973;DHT22;25423;45.624;13.790;2022-08-21T11:04:07;27.30;99.90
30973;DHT22;25423;45.624;13.790;2022-08-21T11:06:34;27.30;99.90
30973;DHT22;25423;45.624;13.790;2022-08-21T11:09:15;27.30;99.90
30973;DHT22;25423;45.624;13.790;2022-08-21T11:14:24;27.20;99.90
30973;DHT22;25423;45.624;13.790;2022-08-21T11:17:00;27.10;99.90
30973;DHT22;25423;45.624;13.790;2022-08-21T11:19:31;27.00;99.90
30973;DHT22;25423;45.624;13.790;2022-08-21T11:22:02;27.10;99.90
30973;DHT22;25423;45.624;13.790;2022-08-21T11:29:44;27.20;99.90
30973;DHT22;25423;45.624;13.790;2022-08-21T11:32:20;27.10;99.90
30973;DHT22;25423;45.624;13.790;2022-08-21T11:50:14;27.30;99.90
30973;DHT22;25423;45.624;13.790;2022-08-21T11:52:56;27.40;99.90
30973;DHT22;25423;45.624;13.790;2022-08-21T11:55:30;27.30;99.90
30973;DHT22;25423;45.624;13.790;2022-08-21T12:00:39;27.30;99.90
30973;DHT22;25423;45.624;13.790;2022-08-21T12:03:17;27.40;99.90
30973;DHT22;25423;45.624;13.790;2022-08-21T12:05:55;27.40;99.90
30973;DHT22;25423;45.624;13.790;2022-08-21T12:08:29;27.30;99.90
30973;DHT22;25423;45.624;13.790;2022-08-21T12:13:31;27.20;99.90
30973;DHT22;25423;45.624;13.790;2022-08-21T12:18:32;27.00;99.90
30973;DHT22;25423;45.624;13.790;2022-08-21T12:21:00;27.20;99.90
30973;DHT22;25423;45.624;13.790;2022-08-21T12:23:27;27.30;99.90
30973;DHT22;25423;45.624;13.790;2022-08-21T12:28:37;27.40;99.90
30973;DHT22;25423;45.624;13.790;2022-08-21T12:31:04;27.40;99.90
30973;DHT22;25423;45.624;13.790;2022-08-21T12:33:38;27.50;99.90
30973;DHT22;25423;45.624;13.790;2022-08-21T12:36:20;27.50;99.90
30973;DHT22;25423;45.624;13.790;2022-08-21T12:39:05;27.60;99.90
30973;DHT22;25423;45.624;13.790;2022-08-21T12:44:08;27.50;99.90
30973;DHT22;25423;45.624;13.790;2022-08-21T12:46:36;27.40;99.90
30973;DHT22;25423;45.624;13.790;2022-08-21T12:49:36;27.20;99.90
30973;DHT22;25423;45.624;13.790;2022-08-21T12:54:27;27.30;99.90
30973;DHT22;25423;45.624;13.790;2022-08-21T12:56:57;27.30;99.90
30973;DHT22;25423;45.624;13.790;2022-08-21T12:59:23;27.50;99.90
30973;DHT22;25423;45.624;13.790;2022-08-21T13:01:49;27.50;99.90
30973;DHT22;25423;45.624;13.790;2022-08-21T13:04:17;27.60;99.90
30973;DHT22;25423;45.624;13.790;2022-08-21T13:06:46;27.40;99.90
30973;DHT22;25423;45.624;13.790;2022-08-21T13:09:13;27.20;99.90
30973;DHT22;25423;45.624;13.790;2022-08-21T13:11:40;27.30;99.90
30973;DHT22;25423;45.624;13.790;2022-08-21T13:14:10;27.30;99.90
30973;DHT22;25423;45.624;13.790;2022-08-21T13:16:39;27.40;99.90
30973;DHT22;25423;45.624;13.790;2022-08-21T13:19:06;27.50;99.90
30973;DHT22;25423;45.624;13.790;2022-08-21T13:21:38;27.30;99.90
30973;DHT22;25423;45.624;13.790;2022-08-21T13:24:19;27.30;99.90
30973;DHT22;25423;45.624;13.790;2022-08-21T13:26:45;27.40;99.90
30973;DHT22;25423;45.624;13.790;2022-08-21T13:29:11;27.50;99.90
30973;DHT22;25423;45.624;13.790;2022-08-21T13:31:38;27.50;99.90
30973;DHT22;25423;45.624;13.790;2022-08-21T13:34:04;27.40;99.90
30973;DHT22;25423;45.624;13.790;2022-08-21T13:36:34;27.50;99.90
30973;DHT22;25423;45.624;13.790;2022-08-21T13:39:02;27.40;99.90
30973;DHT22;25423;45.624;13.790;2022-08-21T13:41:29;27.50;99.90
30973;DHT22;25423;45.624;13.790;2022-08-21T13:43:57;27.40;99.90
30973;DHT22;25423;45.624;13.790;2022-08-21T13:46:24;27.50;99.90
30973;DHT22;25423;45.624;13.790;2022-08-21T13:48:49;27.40;99.90
30973;DHT22;25423;45.624;13.790;2022-08-21T13:51:15;27.40;99.90
30973;DHT22;25423;45.624;13.790;2022-08-21T13:56:07;27.20;99.90
30973;DHT22;25423;45.624;13.790;2022-08-21T13:58:42;27.30;99.90
30973;DHT22;25423;45.624;13.790;2022-08-21T14:01:17;27.60;99.90
30973;DHT22;25423;45.624;13.790;2022-08-21T14:03:43;27.80;99.90
30973;DHT22;25423;45.624;13.790;2022-08-21T14:06:11;27.90;99.90
30973;DHT22;25423;45.624;13.790;2022-08-21T14:08:37;27.90;99.90
30973;DHT22;25423;45.624;13.790;2022-08-21T14:11:05;27.80;99.90
30973;DHT22;25423;45.624;13.790;2022-08-21T14:16:03;27.90;99.90
30973;DHT22;25423;45.624;13.790;2022-08-21T14:18:34;27.90;99.90
30973;DHT22;25423;45.624;13.790;2022-08-21T14:21:08;28.10;99.90
30973;DHT22;25423;45.624;13.790;2022-08-21T14:23:34;28.00;99.90
30973;DHT22;25423;45.624;13.790;2022-08-21T14:26:02;28.20;99.90
30973;DHT22;25423;45.624;13.790;2022-08-21T14:28:34;28.20;99.90
30973;DHT22;25423;45.624;13.790;2022-08-21T14:31:16;28.40;99.90
30973;DHT22;25423;45.624;13.790;2022-08-21T14:33:42;28.50;99.90
30973;DHT22;25423;45.624;13.790;2022-08-21T14:36:08;28.40;99.90
30973;DHT22;25423;45.624;13.790;2022-08-21T14:38:34;28.40;99.90
30973;DHT22;25423;45.624;13.790;2022-08-21T14:41:03;28.50;99.90
30973;DHT22;25423;45.624;13.790;2022-08-21T14:43:29;28.60;99.90
30973;DHT22;25423;45.624;13.790;2022-08-21T14:45:56;28.70;99.90
30973;DHT22;25423;45.624;13.790;2022-08-21T14:48:21;28.70;99.90
30973;DHT22;25423;45.624;13.790;2022-08-21T14:50:47;28.80;99.90
30973;DHT22;25423;45.624;13.790;2022-08-21T14:53:12;28.60;99.90
30973;DHT22;25423;45.624;13.790;2022-08-21T14:55:38;28.50;99.90
30973;DHT22;25423;45.624;13.790;2022-08-21T14:58:23;28.60;99.90
30973;DHT22;25423;45.624;13.790;2022-08-21T15:00:49;28.80;99.90
30973;DHT22;25423;45.624;13.790;2022-08-21T15:03:15;28.90;99.90
30973;DHT22;25423;45.624;13.790;2022-08-21T15:05:41;29.00;99.90
30973;DHT22;25423;45.624;13.790;2022-08-21T15:08:07;28.90;99.90
30973;DHT22;25423;45.624;13.790;2022-08-21T15:10:32;28.80;99.90
30973;DHT22;25423;45.624;13.790;2022-08-21T15:12:59;29.00;99.90
30973;DHT22;25423;45.624;13.790;2022-08-21T15:15:25;29.10;99.90
30973;DHT22;25423;45.624;13.790;2022-08-21T15:17:50;29.00;99.90
30973;DHT22;25423;45.624;13.790;2022-08-21T15:20:16;28.80;99.90
30973;DHT22;25423;45.624;13.790;2022-08-21T15:22:41;28.50;99.90
30973;DHT22;25423;45.624;13.790;2022-08-21T15:25:07;28.30;99.90
30973;DHT22;25423;45.624;13.790;2022-08-21T15:27:33;28.00;99.90
30973;DHT22;25423;45.624;13.790;2022-08-21T15:29:59;27.80;99.90
30973;DHT22;25423;45.624;13.790;2022-08-21T15:32:26;27.70;99.90
30973;DHT22;25423;45.624;13.790;2022-08-21T15:34:53;27.70;99.90
30973;DHT22;25423;45.624;13.790;2022-08-21T15:37:19;27.70;99.90
30973;DHT22;25423;45.624;13.790;2022-08-21T15:39:44;27.80;99.90
30973;DHT22;25423;45.624;13.790;2022-08-21T15:42:10;27.70;99.90
30973;DHT22;25423;45.624;13.790;2022-08-21T15:44:37;27.40;99.90
30973;DHT22;25423;45.624;13.790;2022-08-21T15:47:11;27.30;99.90
30973;DHT22;25423;45.624;13.790;2022-08-21T15:49:37;27.20;99.90
30973;DHT22;25423;45.624;13.790;2022-08-21T15:52:03;27.00;99.90
30973;DHT22;25423;45.624;13.790;2022-08-21T15:54:28;26.70;99.90
30973;DHT22;25423;45.624;13.790;2022-08-21T15:56:54;26.40;99.90
30973;DHT22;25423;45.624;13.790;2022-08-21T15:59:21;25.90;99.90
30973;DHT22;25423;45.624;13.790;2022-08-21T16:01:50;25.60;99.90
30973;DHT22;25423;45.624;13.790;2022-08-21T16:04:21;25.10;99.90
30973;DHT22;25423;45.624;13.790;2022-08-21T16:06:47;24.70;99.90
30973;DHT22;25423;45.624;13.790;2022-08-21T16:09:14;24.40;99.90
30973;DHT22;25423;45.624;13.790;2022-08-21T16:11:40;24.00;99.90
30973;DHT22;25423;45.624;13.790;2022-08-21T16:14:06;23.80;99.90
30973;DHT22;25423;45.624;13.790;2022-08-21T16:16:32;23.70;99.90
30973;DHT22;25423;45.624;13.790;2022-08-21T16:18:58;23.80;99.90
30973;DHT22;25423;45.624;13.790;2022-08-21T16:21:24;23.70;99.90
30973;DHT22;25423;45.624;13.790;2022-08-21T16:23:50;23.70;99.90
30973;DHT22;25423;45.624;13.790;2022-08-21T16:26:15;23.80;99.90
30973;DHT22;25423;45.624;13.790;2022-08-21T16:28:41;24.00;99.90
30973;DHT22;25423;45.624;13.790;2022-08-21T16:31:08;24.10;99.90
30973;DHT22;25423;45.624;13.790;2022-08-21T16:33:35;24.30;99.90
30973;DHT22;25423;45.624;13.790;2022-08-21T16:36:02;24.40;99.90
30973;DHT22;25423;45.624;13.790;2022-08-21T16:38:27;24.60;99.90
30973;DHT22;25423;45.624;13.790;2022-08-21T16:40:53;24.70;99.90
30973;DHT22;25423;45.624;13.790;2022-08-21T16:43:20;24.60;99.90
30973;DHT22;25423;45.624;13.790;2022-08-21T16:45:47;24.60;99.90
30973;DHT22;25423;45.624;13.790;2022-08-21T16:48:13;24.60;99.90
30973;DHT22;25423;45.624;13.790;2022-08-21T16:50:38;24.60;99.90
30973;DHT22;25423;45.624;13.790;2022-08-21T16:53:04;24.70;99.90
30973;DHT22;25423;45.624;13.790;2022-08-21T16:55:32;24.80;99.90